Webcam  Webcam


Lyn radar more information blitzortung!


Regn radar more information rain snow radar



Lokal METAR Rapport

   
EHVK - Volkel Rnlafb, Netherlands
Afstand fra station: SV 18 km
Opdateret: 30-10-2020 08:55
mest skyet  
mest skyet  
   Vind: SV 8.2 m/s
Vind: SV 8.2 m/s
Temperatur: 14°C
Dugpunkt: 12°C
Luftfugtighed: 88%
Barometer: 1017 hPa
Skyet: mest skyet
Sigtbarhed: mere end 10 km
Sky detaljer: Delvis skyet 700 ft,
Delvis skyet 900 ft,
mest skyet 1000 ft
EHVK 300755Z AUTO 22016KT 190V260 9999 SCT007 SCT009 BKN010 14/12 Q1017 GRN TEMPO 3000 DZRA SCT005 BKN010 OVC015
EDLV - Niederrhein, Germany
Afstand fra station: SØ 25 km
Opdateret: 30-10-2020 08:50
Delvis skyet  
Delvis skyet  
   Vind: SV 6.2 m/s
Vind: SV 6.2 m/s
Temperatur: 14°C
Dugpunkt: 12°C
Luftfugtighed: 88%
Barometer: 1017 hPa
Skyet: Delvis skyet
Sigtbarhed: mere end 10 km
Sky detaljer: Delvis skyet 1000 ft
EDLV 300750Z 23012KT 190V260 9999 SCT010 14/12 Q1017
EHDL - Deelen Rnlafb, Netherlands
Afstand fra station: N 35 km
Opdateret: 30-10-2020 08:55
mest skyet  
mest skyet  
   Vind: SV 6.2 m/s
Vind: SV 6.2 m/s
Temperatur: 14°C
Dugpunkt: 13°C
Luftfugtighed: 94%
Barometer: 1016 hPa
Skyet: mest skyet
Sigtbarhed: mere end 10 km
Sky detaljer: Delvis skyet 700 ft,
mest skyet 800 ft,
mest skyet 900 ft
EHDL 300755Z AUTO 23012KT 170V320 9999 SCT007 BKN008 BKN009 14/13 Q1016 GRN
EHEH - Eindhoven Rnlafb, Netherlands
Afstand fra station: SV 48 km
Opdateret: 30-10-2020 09:13
Let tåge, mest skyet  
Let tåge, mest skyet  
   Vind: SV 6.7 m/s
Vind: SV 6.7 m/s
Temperatur: 13°C
Dugpunkt: 13°C
Luftfugtighed: 100%
Barometer: 1017 hPa
Skyet: mest skyet
Sigtbarhed: 5 km
Sky detaljer: Let Skyet 500 ft,
Delvis skyet 600 ft,
mest skyet 800 ft
EHEH 300813Z AUTO 22013KT 190V250 5000 BR FEW005 SCT006 BKN008 13/13 Q1017 YLO TEMPO 2000 +DZ BKN005 OVC008
EHGR - Gilze-Rijen Rnla, Netherlands
Afstand fra station: VSV 70 km
Opdateret: 30-10-2020 09:11
mest skyet  
mest skyet  
   Vind: SV 5.1 m/s
Vind: SV 5.1 m/s
Temperatur: 14°C
Dugpunkt: 13°C
Luftfugtighed: 94%
Barometer: 1017 hPa
Skyet: mest skyet
Sigtbarhed: mere end 10 km
Sky detaljer: Let Skyet 600 ft,
Delvis skyet 700 ft,
mest skyet 900 ft
EHGR 300811Z AUTO 22010KT 180V270 9999 FEW006 SCT007 BKN009 14/13 Q1017 GRN TEMPO SCT005 BKN008
EBBL - Kleine-Brogel(Ba, Belgium
Afstand fra station: SSV 71 km
Opdateret: 30-10-2020 08:55
let finregn, Overskyet  
let finregn, Overskyet  
   Vind: SV 6.2 m/s
Vind: SV 6.2 m/s
Temperatur: 13°C
Dugpunkt: 12°C
Luftfugtighed: 94%
Barometer: 1018 hPa
Skyet: Overskyet
Sigtbarhed: 3 km
Sky detaljer: Let Skyet 500 ft,
Overskyet 700 ft
EBBL 300755Z 22012KT 3000 -DZ FEW005 OVC007 13/12 Q1018 YLO GRN TEMPO YLO

Script udviklet af  Saratoga-weather.org Tilpasset til denne template af  Weerstation Leuven

Du finder også vores vejrinformationer på:

UK Metoffice

European Weather Network

WeatherCloud

Weather Underground

AWEKAS

Citizen Weather Observer Program (CWOP)

HAMweather, WeatherForYou, PWS Weather

Udstyr som vi anvender:

Vejrstation
Davis VP2

Vejrprogram
Meteobridge

Vejrserver
Meteobridge Pro

Davis VP2

Meteobridge

Meteobridge Pro